LIPR/RMI METAR and TAF weather

Enter ICAO airport designator
Station Type Date Time Source
LIPR METAR 2020/02/19 14:50 UTC NOAA

LIPR 191450Z 01005KT 340V040 3000 BR NSC 12/09 Q1017


Station Type Date Time Source
LIPR Decoded METAR 2020/02/19 14:50 UTC NOAA

Rimini, Italy (LIPR) 44-02N 012-37E 13M
Feb 19, 2020 - 09:50 AM EST / 2020.02.19 1450 UTC
Wind: from the N (010 degrees) at 6 MPH (5 KT) (direction variable):0
Visibility: 1 mile(s):0
Weather: mist
Temperature: 53 F (12 C)
Dew Point: 48 F (9 C)
Relative Humidity: 81%
Pressure (altimeter): 30.03 in. Hg (1017 hPa)
ob: LIPR 191450Z 01005KT 340V040 3000 BR NSC 12/09 Q1017
cycle: 15

Station Type Date Time Source
LIPR TAF 2016/08/23 03:00 UTC NOAA

TAF LIPR 230200Z 2303/2312 04007KT CAVOK
BECMG 2308/2310 02010KT

Example: see airport list